createdAt,value
2018-07-13T00:00:35.136Z,17.81
2018-07-13T00:01:35.092Z,17.78
2018-07-13T00:02:35.053Z,17.86
2018-07-13T00:03:35.044Z,17.84
2018-07-13T00:04:34.979Z,17.84
2018-07-13T00:05:34.949Z,17.77
2018-07-13T00:06:34.910Z,17.82
2018-07-13T00:07:34.876Z,17.79
2018-07-13T00:08:34.834Z,17.78
2018-07-13T00:09:34.812Z,17.82
2018-07-13T00:10:34.757Z,17.84
2018-07-13T00:11:34.761Z,17.81
2018-07-13T00:12:34.679Z,17.82
2018-07-13T00:13:34.649Z,17.92
2018-07-13T00:14:34.631Z,17.89
2018-07-13T00:15:34.577Z,17.89
2018-07-13T00:16:34.525Z,17.84
2018-07-13T00:17:34.498Z,17.87
2018-07-13T00:18:34.462Z,17.79
2018-07-13T00:19:34.447Z,17.78
2018-07-13T00:20:34.388Z,17.79
2018-07-13T00:21:34.340Z,17.75
2018-07-13T00:22:34.300Z,17.78
2018-07-13T00:23:34.262Z,17.72
2018-07-13T00:24:34.231Z,17.66
2018-07-13T00:25:34.222Z,17.71
2018-07-13T00:26:34.161Z,17.68
2018-07-13T00:27:34.126Z,17.64
2018-07-13T00:28:34.094Z,17.66
2018-07-13T00:29:34.044Z,17.66
2018-07-13T00:30:34.035Z,17.59
2018-07-13T00:31:33.976Z,17.62
2018-07-13T00:32:33.936Z,17.62
2018-07-13T00:33:33.887Z,17.59
2018-07-13T00:34:33.847Z,17.71
2018-07-13T00:35:33.830Z,17.66
2018-07-13T00:36:33.776Z,17.66
2018-07-13T00:37:33.741Z,17.64
2018-07-13T00:38:33.705Z,17.54
2018-07-13T00:39:33.671Z,17.62
2018-07-13T00:40:33.630Z,17.64
2018-07-13T00:41:33.607Z,17.55
2018-07-13T00:42:33.548Z,17.51
2018-07-13T00:43:33.511Z,17.66
2018-07-13T00:44:33.474Z,17.70
2018-07-13T00:45:33.440Z,17.58
2018-07-13T00:46:33.426Z,17.55
2018-07-13T00:47:33.358Z,17.54
2018-07-13T00:48:33.323Z,17.55
2018-07-13T00:49:33.291Z,17.58
2018-07-13T00:50:33.254Z,17.54
2018-07-13T00:51:33.236Z,17.55
2018-07-13T00:52:33.181Z,17.54
2018-07-13T00:53:33.134Z,17.46
2018-07-13T00:54:33.096Z,17.54
2018-07-13T00:55:33.062Z,17.43
2018-07-13T00:56:33.051Z,17.54
2018-07-13T00:57:32.982Z,17.41
2018-07-13T00:58:32.944Z,17.37
2018-07-13T00:59:32.908Z,17.44
2018-07-13T01:00:32.869Z,17.38
2018-07-13T01:01:32.841Z,17.40
2018-07-13T01:02:32.820Z,17.44
2018-07-13T01:03:32.755Z,17.28
2018-07-13T01:04:32.717Z,17.38
2018-07-13T01:05:32.683Z,17.31
2018-07-13T01:06:32.653Z,17.37
2018-07-13T01:07:32.632Z,17.30
2018-07-13T01:08:32.572Z,17.26
2018-07-13T01:09:32.527Z,17.26
2018-07-13T01:10:32.488Z,17.22
2018-07-13T01:11:32.454Z,17.22
2018-07-13T01:12:32.444Z,17.18
2018-07-13T01:13:32.385Z,17.16
2018-07-13T01:14:32.351Z,17.18
2018-07-13T01:15:32.309Z,17.16
2018-07-13T01:16:32.273Z,17.21
2018-07-13T01:17:32.223Z,17.12
2018-07-13T01:18:32.210Z,17.12
2018-07-13T01:19:32.158Z,17.22
2018-07-13T01:20:32.118Z,17.15
2018-07-13T01:21:32.074Z,17.06
2018-07-13T01:22:32.046Z,17.11
2018-07-13T01:23:32.021Z,17.11
2018-07-13T01:24:31.960Z,17.03
2018-07-13T01:25:31.931Z,16.93
2018-07-13T01:26:31.892Z,17.06
2018-07-13T01:27:31.856Z,16.98
2018-07-13T01:28:31.837Z,17.01
2018-07-13T01:29:31.769Z,16.89
2018-07-13T01:30:31.735Z,16.94
2018-07-13T01:31:31.696Z,16.89
2018-07-13T01:32:31.655Z,16.93
2018-07-13T01:33:31.655Z,16.82
2018-07-13T01:34:31.590Z,16.88
2018-07-13T01:35:31.544Z,16.78
2018-07-13T01:36:31.505Z,16.79
2018-07-13T01:37:31.471Z,16.75
2018-07-13T01:38:31.436Z,16.67
2018-07-13T01:39:31.418Z,16.67
2018-07-13T01:40:31.361Z,16.75
2018-07-13T01:41:31.315Z,16.67
2018-07-13T01:42:31.275Z,16.68
2018-07-13T01:43:31.241Z,16.58
2018-07-13T01:44:31.222Z,16.52
2018-07-13T01:45:31.173Z,16.46
2018-07-13T01:46:31.130Z,16.52
2018-07-13T01:47:31.094Z,16.41
2018-07-13T01:48:31.056Z,16.48
2018-07-13T01:49:31.035Z,16.34
2018-07-13T01:50:30.973Z,16.52
2018-07-13T01:51:30.944Z,16.43
2018-07-13T01:52:30.902Z,16.53
2018-07-13T01:53:30.859Z,16.46
2018-07-13T01:54:30.820Z,16.35
2018-07-13T01:55:30.856Z,16.33
2018-07-13T01:56:30.744Z,16.15
2018-07-13T01:57:30.713Z,16.31
2018-07-13T01:58:30.677Z,16.27
2018-07-13T01:59:30.638Z,16.17
2018-07-13T02:00:30.620Z,16.27
2018-07-13T02:01:30.551Z,16.07
2018-07-13T02:02:30.517Z,16.04
2018-07-13T02:03:30.474Z,16.07
2018-07-13T02:04:30.438Z,16.09
2018-07-13T02:05:30.431Z,16.07
2018-07-13T02:06:30.389Z,16.05
2018-07-13T02:07:30.323Z,16.20
2018-07-13T02:08:30.286Z,16.05
2018-07-13T02:09:30.257Z,16.04
2018-07-13T02:10:30.214Z,16.01
2018-07-13T02:11:30.199Z,16.01
2018-07-13T02:12:30.139Z,15.96
2018-07-13T02:13:30.109Z,16.08
2018-07-13T02:14:30.055Z,15.96
2018-07-13T02:15:30.019Z,15.97
2018-07-13T02:16:30.001Z,16.05
2018-07-13T02:17:29.952Z,15.96
2018-07-13T02:18:29.909Z,15.94
2018-07-13T02:19:29.873Z,15.93
2018-07-13T02:20:29.834Z,15.90
2018-07-13T02:21:29.807Z,15.86
2018-07-13T02:22:29.756Z,15.87
2018-07-13T02:23:29.719Z,15.89
2018-07-13T02:24:29.683Z,15.87
2018-07-13T02:25:29.636Z,15.90
2018-07-13T02:26:29.624Z,15.86
2018-07-13T02:27:29.557Z,15.89
2018-07-13T02:28:29.520Z,15.75
2018-07-13T02:29:29.488Z,15.78
2018-07-13T02:30:29.453Z,15.84
2018-07-13T02:31:29.411Z,15.71
2018-07-13T02:32:29.403Z,15.69
2018-07-13T02:33:29.326Z,15.67
2018-07-13T02:34:29.287Z,15.67
2018-07-13T02:35:29.252Z,15.62
2018-07-13T02:36:29.214Z,15.56
2018-07-13T02:37:29.211Z,15.57
2018-07-13T02:38:29.141Z,15.56
2018-07-13T02:39:29.099Z,15.60
2018-07-13T02:40:29.062Z,15.44
2018-07-13T02:41:29.033Z,15.51
2018-07-13T02:42:29.014Z,15.41
2018-07-13T02:43:28.949Z,15.46
2018-07-13T02:44:28.915Z,15.43
2018-07-13T02:45:28.865Z,15.46
2018-07-13T02:46:28.830Z,15.38
2018-07-13T02:47:28.789Z,15.36
2018-07-13T02:48:28.784Z,15.32
2018-07-13T02:49:28.717Z,15.28
2018-07-13T02:50:28.681Z,15.29
2018-07-13T02:51:28.644Z,15.29
2018-07-13T02:52:28.608Z,15.32
2018-07-13T02:53:28.582Z,15.27
2018-07-13T02:54:28.519Z,15.27
2018-07-13T02:55:28.492Z,15.34
2018-07-13T02:56:28.455Z,15.28
2018-07-13T02:57:28.428Z,15.34
2018-07-13T02:58:28.369Z,15.27
2018-07-13T02:59:28.331Z,15.25
2018-07-13T03:00:28.291Z,15.29
2018-07-13T03:01:28.261Z,15.34
2018-07-13T03:02:28.244Z,15.29
2018-07-13T03:03:28.183Z,15.25
2018-07-13T03:04:28.141Z,15.25
2018-07-13T03:05:28.098Z,15.39
2018-07-13T03:06:28.058Z,15.28
2018-07-13T03:07:28.044Z,15.28
2018-07-13T03:08:27.985Z,15.27
2018-07-13T03:09:27.949Z,15.29
2018-07-13T03:10:27.918Z,15.27
2018-07-13T03:11:27.864Z,15.21
2018-07-13T03:12:27.854Z,15.28
2018-07-13T03:13:27.796Z,15.25
2018-07-13T03:14:27.758Z,15.27
2018-07-13T03:15:27.718Z,15.32
2018-07-13T03:16:27.686Z,15.17
2018-07-13T03:17:27.656Z,15.20
2018-07-13T03:18:27.598Z,15.13
2018-07-13T03:19:27.555Z,15.19
2018-07-13T03:20:27.518Z,15.28
2018-07-13T03:21:27.485Z,15.21
2018-07-13T03:22:27.473Z,15.20
2018-07-13T03:23:27.409Z,15.14
2018-07-13T03:24:27.376Z,15.10
2018-07-13T03:25:27.326Z,15.11
2018-07-13T03:26:27.287Z,15.17
2018-07-13T03:27:27.277Z,15.13
2018-07-13T03:28:27.215Z,15.09
2018-07-13T03:29:27.170Z,15.11
2018-07-13T03:30:27.133Z,15.09
2018-07-13T03:31:27.098Z,15.01
2018-07-13T03:32:27.081Z,15.01
2018-07-13T03:33:27.022Z,15.03
2018-07-13T03:34:26.985Z,15.11
2018-07-13T03:35:26.944Z,14.99
2018-07-13T03:36:26.928Z,15.02
2018-07-13T03:37:26.861Z,15.09
2018-07-13T03:38:26.845Z,15.07
2018-07-13T03:39:26.786Z,15.07
2018-07-13T03:40:26.745Z,15.03
2018-07-13T03:41:26.736Z,15.06
2018-07-13T03:42:26.677Z,15.07
2018-07-13T03:43:26.629Z,15.07
2018-07-13T03:44:26.592Z,15.07
2018-07-13T03:45:26.558Z,14.95
2018-07-13T03:46:26.542Z,14.96
2018-07-13T03:47:26.479Z,15.07
2018-07-13T03:48:26.473Z,15.02
2018-07-13T03:49:26.428Z,15.03
2018-07-13T03:50:26.358Z,15.01
2018-07-13T03:51:26.343Z,15.13
2018-07-13T03:52:26.283Z,15.09
2018-07-13T03:53:26.248Z,15.13
2018-07-13T03:54:26.208Z,15.13
2018-07-13T03:55:26.175Z,15.16
2018-07-13T03:56:26.154Z,15.20
2018-07-13T03:57:26.086Z,15.21
2018-07-13T03:58:26.046Z,15.27
2018-07-13T03:59:26.019Z,15.29
2018-07-13T04:00:26.003Z,15.38
2018-07-13T04:01:25.955Z,15.43
2018-07-13T04:02:25.895Z,15.46
2018-07-13T04:03:25.856Z,15.41
2018-07-13T04:04:25.816Z,15.46
2018-07-13T04:05:25.785Z,15.46
2018-07-13T04:06:25.790Z,15.50
2018-07-13T04:07:25.709Z,15.53
2018-07-13T04:08:25.672Z,15.54
2018-07-13T04:09:25.622Z,15.64
2018-07-13T04:10:25.583Z,15.64
2018-07-13T04:11:25.570Z,15.69
2018-07-13T04:12:25.507Z,15.64
2018-07-13T04:13:25.473Z,15.64
2018-07-13T04:14:25.440Z,15.74
2018-07-13T04:15:25.394Z,15.64
2018-07-13T04:16:25.374Z,15.74
2018-07-13T04:17:25.322Z,15.69
2018-07-13T04:18:25.281Z,15.67
2018-07-13T04:19:25.245Z,15.72
2018-07-13T04:20:25.228Z,15.69
2018-07-13T04:21:25.158Z,15.74
2018-07-13T04:22:25.121Z,15.86
2018-07-13T04:23:25.084Z,15.86
2018-07-13T04:24:25.044Z,15.86
2018-07-13T04:25:25.036Z,15.78
2018-07-13T04:26:24.978Z,15.87
2018-07-13T04:27:24.937Z,15.76
2018-07-13T04:28:24.900Z,15.86
2018-07-13T04:29:24.852Z,15.86
2018-07-13T04:30:24.835Z,15.78
2018-07-13T04:31:24.782Z,15.93
2018-07-13T04:32:24.746Z,15.96
2018-07-13T04:33:24.698Z,15.97
2018-07-13T04:34:24.660Z,16.01
2018-07-13T04:35:24.642Z,15.93
2018-07-13T04:36:24.585Z,16.02
2018-07-13T04:37:24.551Z,16.07
2018-07-13T04:38:24.513Z,16.15
2018-07-13T04:39:24.478Z,16.23
2018-07-13T04:40:24.460Z,16.24
2018-07-13T04:41:24.390Z,16.33
2018-07-13T04:42:24.351Z,16.35
2018-07-13T04:43:24.314Z,16.57
2018-07-13T04:44:24.278Z,17.04
2018-07-13T04:45:24.265Z,17.84
2018-07-13T04:46:24.208Z,18.58
2018-07-13T04:47:24.162Z,19.19
2018-07-13T04:48:24.128Z,19.65
2018-07-13T04:49:24.091Z,20.08
2018-07-13T04:50:24.074Z,20.42
2018-07-13T04:51:24.017Z,20.76
2018-07-13T04:52:23.976Z,21.03
2018-07-13T04:53:23.933Z,21.25
2018-07-13T04:54:23.897Z,21.56
2018-07-13T04:55:23.882Z,21.64
2018-07-13T04:56:23.822Z,21.75
2018-07-13T04:57:23.791Z,22.18
2018-07-13T04:58:23.756Z,22.47
2018-07-13T04:59:23.719Z,22.60
2018-07-13T05:00:23.702Z,22.98
2018-07-13T05:01:23.639Z,22.98
2018-07-13T05:02:23.600Z,22.91
2018-07-13T05:03:23.570Z,23.02
2018-07-13T05:04:23.537Z,22.94
2018-07-13T05:05:23.514Z,23.01
2018-07-13T05:06:23.458Z,23.20
2018-07-13T05:07:23.421Z,23.36
2018-07-13T05:08:23.384Z,23.28
2018-07-13T05:09:23.384Z,23.47
2018-07-13T05:10:23.320Z,23.76
2018-07-13T05:11:23.284Z,24.05
2018-07-13T05:12:23.249Z,24.09
2018-07-13T05:13:23.209Z,24.20
2018-07-13T05:14:23.195Z,24.34
2018-07-13T05:15:23.139Z,24.32
2018-07-13T05:16:23.103Z,24.46
2018-07-13T05:17:23.076Z,24.61
2018-07-13T05:18:23.041Z,24.65
2018-07-13T05:19:23.022Z,24.93
2018-07-13T05:20:22.963Z,24.99
2018-07-13T05:21:22.981Z,25.05
2018-07-13T05:22:22.900Z,25.28
2018-07-13T05:23:22.869Z,25.50
2018-07-13T05:24:22.854Z,25.65
2018-07-13T05:25:22.792Z,25.54
2018-07-13T05:26:22.759Z,25.70
2018-07-13T05:27:22.721Z,25.83
2018-07-13T05:28:22.690Z,25.80
2018-07-13T05:29:22.695Z,26.18
2018-07-13T05:30:22.628Z,26.29
2018-07-13T05:31:22.600Z,26.09
2018-07-13T05:32:22.561Z,26.40
2018-07-13T05:33:22.523Z,26.29
2018-07-13T05:34:22.488Z,26.29
2018-07-13T05:35:22.483Z,26.37
2018-07-13T05:36:22.429Z,26.35
2018-07-13T05:37:22.392Z,26.43
2018-07-13T05:38:22.387Z,26.80
2018-07-13T05:39:22.321Z,26.43
2018-07-13T05:40:22.315Z,26.40
2018-07-13T05:41:22.263Z,26.39
2018-07-13T05:42:22.235Z,26.62
2018-07-13T05:43:22.195Z,26.92
2018-07-13T05:44:22.164Z,27.14
2018-07-13T05:45:22.120Z,26.65
2018-07-13T05:46:22.113Z,26.70
2018-07-13T05:47:22.056Z,26.72
2018-07-13T05:48:22.025Z,26.65
2018-07-13T05:49:21.997Z,26.81
2018-07-13T05:50:21.964Z,26.50
2018-07-13T05:51:21.943Z,26.40
2018-07-13T05:52:21.891Z,26.54
2018-07-13T05:53:21.865Z,27.22
2018-07-13T05:54:21.832Z,27.65
2018-07-13T05:55:21.799Z,27.78
2018-07-13T05:56:21.789Z,27.85
2018-07-13T05:57:21.726Z,28.12
2018-07-13T05:58:21.695Z,27.90
2018-07-13T05:59:21.664Z,27.59
2018-07-13T06:00:21.631Z,27.70
2018-07-13T06:01:21.625Z,27.75
2018-07-13T06:02:21.571Z,27.93
2018-07-13T06:03:21.539Z,28.09
2018-07-13T06:04:21.509Z,27.82
2018-07-13T06:05:21.472Z,28.04
2018-07-13T06:06:21.464Z,28.55
2018-07-13T06:07:21.414Z,28.81
2018-07-13T06:08:21.382Z,28.76
2018-07-13T06:09:21.338Z,28.70
2018-07-13T06:10:21.310Z,28.80
2018-07-13T06:11:21.279Z,28.96
2018-07-13T06:12:21.269Z,28.93
2018-07-13T06:13:21.219Z,29.04
2018-07-13T06:14:21.188Z,29.34
2018-07-13T06:15:21.156Z,29.28
2018-07-13T06:16:21.124Z,29.58
2018-07-13T06:17:21.110Z,29.04
2018-07-13T06:18:21.055Z,29.06
2018-07-13T06:19:21.020Z,29.05
2018-07-13T06:20:21.000Z,28.88
2018-07-13T06:21:20.965Z,28.62
2018-07-13T06:22:20.932Z,28.44
2018-07-13T06:23:20.916Z,28.64
2018-07-13T06:24:20.936Z,28.64
2018-07-13T06:25:20.841Z,28.59
2018-07-13T06:26:20.808Z,28.76
2018-07-13T06:27:20.777Z,28.49
2018-07-13T06:28:20.764Z,28.54
2018-07-13T06:29:20.708Z,29.37
2018-07-13T06:30:20.712Z,29.27
2018-07-13T06:31:20.723Z,29.11
2018-07-13T06:32:20.615Z,29.87
2018-07-13T06:33:20.610Z,29.95
2018-07-13T06:34:20.558Z,29.63
2018-07-13T06:35:20.528Z,29.55
2018-07-13T06:36:20.493Z,29.28
2018-07-13T06:37:20.478Z,29.04
2018-07-13T06:38:20.425Z,29.05
2018-07-13T06:39:20.401Z,29.11
2018-07-13T06:40:20.371Z,28.73
2018-07-13T06:41:20.330Z,28.95
2018-07-13T06:42:20.323Z,28.30
2018-07-13T06:43:20.273Z,27.97
2018-07-13T06:44:20.240Z,28.51
2018-07-13T06:45:20.215Z,28.96
2018-07-13T06:46:20.183Z,28.54
2018-07-13T06:47:20.172Z,29.21
2018-07-13T06:48:20.118Z,29.60
2018-07-13T06:49:20.084Z,29.95
2018-07-13T06:50:20.102Z,29.95
2018-07-13T06:51:20.020Z,29.48
2018-07-13T06:52:20.015Z,29.57
2018-07-13T06:53:19.967Z,29.60
2018-07-13T06:54:19.940Z,29.28
2018-07-13T06:55:19.894Z,29.60
2018-07-13T06:56:19.864Z,30.13
2018-07-13T06:57:19.865Z,30.27
2018-07-13T06:58:19.808Z,30.26
2018-07-13T06:59:19.780Z,30.27
2018-07-13T07:00:19.750Z,29.73
2018-07-13T07:01:19.709Z,29.70
2018-07-13T07:02:19.682Z,30.46
2018-07-13T07:03:19.674Z,30.58
2018-07-13T07:04:19.618Z,30.64
2018-07-13T07:05:19.593Z,30.54
2018-07-13T07:06:19.565Z,29.79
2018-07-13T07:07:19.542Z,29.63
2018-07-13T07:08:19.530Z,29.51
2018-07-13T07:09:19.468Z,29.73
2018-07-13T07:10:19.435Z,30.27
2018-07-13T07:11:19.416Z,30.39
2018-07-13T07:12:19.385Z,29.98
2018-07-13T07:13:19.342Z,29.78
2018-07-13T07:14:19.337Z,29.63
2018-07-13T07:15:19.287Z,29.26
2018-07-13T07:16:19.256Z,29.68
2018-07-13T07:17:19.233Z,29.80
2018-07-13T07:18:19.203Z,29.27
2018-07-13T07:19:19.198Z,29.61
2018-07-13T07:20:19.142Z,29.28
2018-07-13T07:21:19.101Z,29.65
2018-07-13T07:22:19.074Z,29.53
2018-07-13T07:23:19.043Z,29.53
2018-07-13T07:24:19.016Z,29.39
2018-07-13T07:25:19.014Z,29.30
2018-07-13T07:26:18.956Z,29.71
2018-07-13T07:27:18.920Z,30.01
2018-07-13T07:28:18.893Z,30.61
2018-07-13T07:29:18.870Z,31.13
2018-07-13T07:30:18.857Z,30.95
2018-07-13T07:31:18.807Z,30.84
2018-07-13T07:32:18.780Z,30.77
2018-07-13T07:33:18.740Z,31.23
2018-07-13T07:34:18.710Z,30.72
2018-07-13T07:35:18.709Z,30.49
2018-07-13T07:36:18.671Z,29.94
2018-07-13T07:37:18.630Z,29.97
2018-07-13T07:38:18.611Z,30.10
2018-07-13T07:39:18.567Z,30.39
2018-07-13T07:40:18.539Z,30.23
2018-07-13T07:41:18.538Z,30.38
2018-07-13T07:42:18.475Z,30.43
2018-07-13T07:43:18.454Z,30.37
2018-07-13T07:44:18.422Z,30.22
2018-07-13T07:45:18.385Z,30.07
2018-07-13T07:46:18.376Z,29.61
2018-07-13T07:47:18.327Z,29.49
2018-07-13T07:48:18.299Z,29.33
2018-07-13T07:49:18.276Z,28.83
2018-07-13T07:50:18.243Z,28.93
2018-07-13T07:51:18.244Z,29.12
2018-07-13T07:52:18.189Z,29.46
2018-07-13T07:53:18.149Z,29.76
2018-07-13T07:54:18.122Z,30.02
2018-07-13T07:55:18.094Z,30.31
2018-07-13T07:56:18.064Z,30.69
2018-07-13T07:57:18.064Z,30.86
2018-07-13T07:58:18.016Z,30.84
2018-07-13T07:59:17.983Z,30.58
2018-07-13T08:00:17.951Z,30.37
2018-07-13T08:01:17.927Z,30.32
2018-07-13T08:02:17.914Z,30.29
2018-07-13T08:03:17.873Z,30.00
2018-07-13T08:04:17.840Z,29.58
2018-07-13T08:05:17.801Z,29.57
2018-07-13T08:06:17.830Z,29.49
2018-07-13T08:07:17.997Z,29.09
2018-07-13T08:08:17.721Z,29.08
2018-07-13T08:09:17.704Z,28.83
2018-07-13T08:10:17.672Z,29.19
2018-07-13T08:11:17.639Z,29.08
2018-07-13T08:12:17.634Z,29.18
2018-07-13T08:13:17.587Z,29.60
2018-07-13T08:14:17.581Z,29.36
2018-07-13T08:15:17.537Z,29.41
2018-07-13T08:16:17.507Z,29.58
2018-07-13T08:17:17.471Z,29.78
2018-07-13T08:18:17.474Z,29.16
2018-07-13T08:19:17.407Z,29.26
2018-07-13T08:20:17.381Z,29.73
2018-07-13T08:21:17.358Z,29.18
2018-07-13T08:22:17.325Z,29.24
2018-07-13T08:23:17.322Z,29.34
2018-07-13T08:24:17.277Z,29.21
2018-07-13T08:25:17.242Z,29.28
2018-07-13T08:26:17.210Z,28.39
2018-07-13T08:27:17.189Z,28.17
2018-07-13T08:28:17.197Z,28.34
2018-07-13T08:29:17.136Z,28.43
2018-07-13T08:30:17.108Z,28.44
2018-07-13T08:31:17.075Z,28.27
2018-07-13T08:32:17.051Z,28.31
2018-07-13T08:33:17.026Z,28.46
2018-07-13T08:34:17.015Z,28.39
2018-07-13T08:35:16.971Z,28.51
2018-07-13T08:36:16.936Z,28.43
2018-07-13T08:37:16.898Z,28.68
2018-07-13T08:38:16.874Z,28.67
2018-07-13T08:39:16.868Z,28.54
2018-07-13T08:40:16.817Z,28.19
2018-07-13T08:41:16.802Z,27.96
2018-07-13T08:42:16.774Z,27.90
2018-07-13T08:43:16.742Z,28.18
2018-07-13T08:44:16.716Z,28.37
2018-07-13T08:45:16.702Z,28.33
2018-07-13T08:46:16.650Z,28.37
2018-07-13T08:47:16.634Z,28.78
2018-07-13T08:48:16.609Z,29.11
2018-07-13T08:49:16.567Z,29.04
2018-07-13T08:50:16.565Z,29.19
2018-07-13T08:51:16.557Z,28.46
2018-07-13T08:52:16.484Z,28.11
2018-07-13T08:53:16.463Z,27.36
2018-07-13T08:54:16.440Z,27.04
2018-07-13T08:55:16.444Z,26.76
2018-07-13T08:56:16.442Z,26.97
2018-07-13T08:57:16.349Z,27.49
2018-07-13T08:58:16.321Z,27.96
2018-07-13T08:59:16.292Z,28.12
2018-07-13T09:00:16.274Z,28.21
2018-07-13T09:01:16.267Z,28.31
2018-07-13T09:02:16.217Z,28.06
2018-07-13T09:03:16.188Z,28.19
2018-07-13T09:04:16.164Z,28.02
2018-07-13T09:05:16.133Z,28.30
2018-07-13T09:06:16.130Z,28.70
2018-07-13T09:07:16.090Z,28.41
2018-07-13T09:08:16.060Z,28.30
2018-07-13T09:09:16.022Z,28.22
2018-07-13T09:10:15.988Z,28.43
2018-07-13T09:11:15.988Z,28.33
2018-07-13T09:12:15.944Z,28.89
2018-07-13T09:13:15.920Z,28.98
2018-07-13T09:14:15.892Z,28.98
2018-07-13T09:15:15.862Z,29.05
2018-07-13T09:16:15.874Z,28.90
2018-07-13T09:17:15.804Z,29.39
2018-07-13T09:18:15.804Z,29.57
2018-07-13T09:19:15.757Z,29.58
2018-07-13T09:20:15.731Z,29.48
2018-07-13T09:21:15.724Z,28.83
2018-07-13T09:22:15.669Z,28.78
2018-07-13T09:23:15.642Z,29.06
2018-07-13T09:24:15.620Z,29.33
2018-07-13T09:25:15.596Z,29.31
2018-07-13T09:26:15.600Z,29.68
2018-07-13T09:27:15.537Z,29.87
2018-07-13T09:28:15.513Z,29.89
2018-07-13T09:29:15.488Z,29.70
2018-07-13T09:30:15.466Z,29.24
2018-07-13T09:31:15.528Z,28.92
2018-07-13T09:32:15.433Z,29.05
2018-07-13T09:33:15.382Z,28.89
2018-07-13T09:34:15.371Z,29.06
2018-07-13T09:35:15.337Z,29.24
2018-07-13T09:36:15.308Z,29.12
2018-07-13T09:37:15.305Z,29.31
2018-07-13T09:38:15.306Z,28.90
2018-07-13T09:39:15.233Z,28.88
2018-07-13T09:40:15.203Z,28.52
2018-07-13T09:41:15.183Z,28.83
2018-07-13T09:42:15.188Z,28.73
2018-07-13T09:43:15.133Z,28.98
2018-07-13T09:44:15.108Z,28.70
2018-07-13T09:45:15.068Z,28.59
2018-07-13T09:46:15.046Z,28.76
2018-07-13T09:47:15.057Z,29.33
2018-07-13T09:48:14.992Z,29.00
2018-07-13T09:49:14.975Z,29.12
2018-07-13T09:50:14.949Z,29.53
2018-07-13T09:51:14.915Z,29.63
2018-07-13T09:52:14.913Z,29.85
2018-07-13T09:53:14.879Z,29.87
2018-07-13T09:54:14.889Z,29.76
2018-07-13T09:55:14.819Z,29.83
2018-07-13T09:56:14.794Z,30.19
2018-07-13T09:57:14.764Z,30.00
2018-07-13T09:58:14.760Z,29.21
2018-07-13T09:59:14.714Z,29.21
2018-07-13T10:00:14.688Z,29.09
2018-07-13T10:01:14.668Z,29.11
2018-07-13T10:02:14.647Z,29.36
2018-07-13T10:03:14.645Z,29.02
2018-07-13T10:04:14.594Z,28.85
2018-07-13T10:05:14.566Z,28.19
2018-07-13T10:06:14.544Z,27.60
2018-07-13T10:07:14.519Z,27.59
2018-07-13T10:08:14.518Z,27.88
2018-07-13T10:09:14.461Z,28.07
2018-07-13T10:10:14.435Z,28.62
2018-07-13T10:11:14.425Z,28.90
2018-07-13T10:12:14.386Z,28.83
2018-07-13T10:13:14.368Z,28.92
2018-07-13T10:14:14.363Z,28.41
2018-07-13T10:15:14.316Z,28.77
2018-07-13T10:16:14.286Z,29.02
2018-07-13T10:17:14.259Z,29.23
2018-07-13T10:18:14.231Z,29.21
2018-07-13T10:19:14.228Z,28.85
2018-07-13T10:20:14.179Z,29.08
2018-07-13T10:21:14.171Z,29.41
2018-07-13T10:22:14.137Z,28.98
2018-07-13T10:23:14.112Z,29.21
2018-07-13T10:24:14.104Z,29.28
2018-07-13T10:25:14.059Z,29.53
2018-07-13T10:26:14.036Z,29.52
2018-07-13T10:27:14.010Z,29.43
2018-07-13T10:28:13.983Z,29.57
2018-07-13T10:29:14.016Z,29.53
2018-07-13T10:30:13.947Z,29.43
2018-07-13T10:31:13.899Z,29.37
2018-07-13T10:32:13.881Z,29.57
2018-07-13T10:33:13.862Z,29.37
2018-07-13T10:34:13.833Z,29.26
2018-07-13T10:35:13.831Z,29.08
2018-07-13T10:36:13.782Z,29.34
2018-07-13T10:37:13.749Z,28.73
2018-07-13T10:38:13.726Z,28.36
2018-07-13T10:39:13.706Z,28.27
2018-07-13T10:40:13.708Z,28.30
2018-07-13T10:41:13.651Z,28.51
2018-07-13T10:42:13.626Z,28.98
2018-07-13T10:43:13.601Z,29.05
2018-07-13T10:44:13.575Z,29.34
2018-07-13T10:45:13.557Z,29.65
2018-07-13T10:46:13.551Z,29.33
2018-07-13T10:47:13.511Z,29.12
2018-07-13T10:48:13.487Z,28.93
2018-07-13T10:49:13.451Z,28.74
2018-07-13T10:50:13.428Z,28.92
2018-07-13T10:51:13.428Z,28.77
2018-07-13T10:52:13.374Z,28.77
2018-07-13T10:53:13.359Z,28.78
2018-07-13T10:54:13.336Z,29.24
2018-07-13T10:55:13.299Z,29.31
2018-07-13T10:56:13.300Z,29.55
2018-07-13T10:57:13.256Z,29.70
2018-07-13T10:58:13.234Z,29.74
2018-07-13T10:59:13.204Z,29.52
2018-07-13T11:00:13.181Z,28.93
2018-07-13T11:01:13.150Z,28.76
2018-07-13T11:02:13.145Z,28.85
2018-07-13T11:03:13.101Z,29.02
2018-07-13T11:04:13.071Z,29.26
2018-07-13T11:05:13.057Z,29.55
2018-07-13T11:06:13.028Z,29.42
2018-07-13T11:07:13.028Z,29.55
2018-07-13T11:08:12.978Z,29.33
2018-07-13T11:09:12.945Z,29.21
2018-07-13T11:10:12.920Z,29.06
2018-07-13T11:11:12.905Z,29.00
2018-07-13T11:12:12.905Z,28.93
2018-07-13T11:13:12.843Z,29.00
2018-07-13T11:14:12.823Z,29.04
2018-07-13T11:15:12.797Z,28.76
2018-07-13T11:16:12.771Z,28.55
2018-07-13T11:17:12.749Z,28.77
2018-07-13T11:18:12.749Z,28.93
2018-07-13T11:19:12.699Z,29.05
2018-07-13T11:20:12.676Z,29.27
2018-07-13T11:21:12.646Z,29.39
2018-07-13T11:22:12.618Z,29.63
2018-07-13T11:23:12.612Z,29.70
2018-07-13T11:24:12.588Z,29.79
2018-07-13T11:25:12.551Z,29.80
2018-07-13T11:26:12.527Z,29.67
2018-07-13T11:27:12.495Z,29.55
2018-07-13T11:28:12.493Z,29.39
2018-07-13T11:29:12.447Z,29.43
2018-07-13T11:30:12.424Z,29.48
2018-07-13T11:31:12.402Z,29.26
2018-07-13T11:32:12.374Z,29.16
2018-07-13T11:33:12.368Z,29.21
2018-07-13T11:34:12.316Z,29.23
2018-07-13T11:35:12.288Z,29.23
2018-07-13T11:36:12.265Z,29.24
2018-07-13T11:37:12.453Z,29.43
2018-07-13T11:38:12.224Z,29.57
2018-07-13T11:39:12.218Z,29.16
2018-07-13T11:40:12.173Z,28.98
2018-07-13T11:41:12.135Z,28.77
2018-07-13T11:42:12.112Z,28.83
2018-07-13T11:43:12.095Z,28.90
2018-07-13T11:44:12.155Z,28.96
2018-07-13T11:45:12.035Z,28.89
2018-07-13T11:46:12.008Z,29.00
2018-07-13T11:47:11.984Z,29.04
2018-07-13T11:48:11.959Z,28.89
2018-07-13T11:49:11.965Z,29.05
2018-07-13T11:50:11.912Z,28.93
2018-07-13T11:51:11.885Z,29.00
2018-07-13T11:52:11.917Z,29.24
2018-07-13T11:53:11.826Z,28.98
2018-07-13T11:54:11.800Z,28.96
2018-07-13T11:55:11.795Z,28.88
2018-07-13T11:56:11.752Z,28.71
2018-07-13T11:57:11.728Z,28.83
2018-07-13T11:58:11.705Z,28.90
2018-07-13T11:59:11.673Z,29.04
2018-07-13T12:00:11.667Z,29.08
2018-07-13T12:01:11.630Z,29.12
2018-07-13T12:02:11.596Z,29.27
2018-07-13T12:03:11.572Z,29.11
2018-07-13T12:04:11.548Z,28.70
2018-07-13T12:05:11.537Z,28.40
2018-07-13T12:06:11.489Z,28.48
2018-07-13T12:07:11.463Z,28.41
2018-07-13T12:08:11.437Z,28.48
2018-07-13T12:09:11.415Z,28.66
2018-07-13T12:10:11.413Z,28.67
2018-07-13T12:11:11.362Z,28.64
2018-07-13T12:12:11.335Z,28.76
2018-07-13T12:13:11.301Z,28.55
2018-07-13T12:14:11.275Z,28.25
2018-07-13T12:15:11.256Z,28.22
2018-07-13T12:16:11.252Z,28.39
2018-07-13T12:17:11.194Z,28.52
2018-07-13T12:18:11.166Z,28.55
2018-07-13T12:19:11.139Z,28.70
2018-07-13T12:20:11.112Z,28.78
2018-07-13T12:21:11.116Z,28.88
2018-07-13T12:22:11.066Z,28.92
2018-07-13T12:23:11.045Z,28.95
2018-07-13T12:24:11.011Z,28.95
2018-07-13T12:25:10.977Z,28.83
2018-07-13T12:26:10.977Z,28.83
2018-07-13T12:27:10.925Z,28.78
2018-07-13T12:28:10.894Z,28.78
2018-07-13T12:29:10.874Z,28.78
2018-07-13T12:30:10.847Z,28.92
2018-07-13T12:31:10.812Z,28.43
2018-07-13T12:32:10.808Z,27.90
2018-07-13T12:33:10.765Z,28.02
2018-07-13T12:34:10.737Z,28.11
2018-07-13T12:35:10.711Z,28.12
2018-07-13T12:36:10.683Z,27.96
2018-07-13T12:37:10.668Z,27.85
2018-07-13T12:38:10.619Z,28.07
2018-07-13T12:39:10.594Z,28.04
2018-07-13T12:40:10.566Z,28.12
2018-07-13T12:41:10.547Z,28.22
2018-07-13T12:42:10.541Z,28.39
2018-07-13T12:43:10.487Z,28.59
2018-07-13T12:44:10.459Z,28.73
2018-07-13T12:45:10.424Z,28.74
2018-07-13T12:46:10.445Z,28.73
2018-07-13T12:47:10.377Z,28.83
2018-07-13T12:48:10.371Z,28.89
2018-07-13T12:49:10.373Z,28.78
2018-07-13T12:50:10.285Z,28.92
2018-07-13T12:51:10.260Z,28.92
2018-07-13T12:52:10.233Z,28.67